Willow Run, Michigan
Current Conditions -  °F | °C
As of 1:53 PM on Friday 24 Oct 2014 (Local Time) from KYIP Reporting Station
Overcast Overcast  
Wind Chill: 64°   Ceiling: 4000
Heat Index: 64°   Visibility: 10mi
Dew Point: 43°   Wind: 8mph
Humidity: 46%   Direction: 220°SW
Pressure: 30.03"   Gusts: NA
Location:  42.272°N, 83.5839°W
Report Text: KYIP 241753Z 22007KT 10SM BKN040 OVC050 18/06 A3003 RMK AO2 SLP168 T01780061 $
Loading
Personal Weather Stations






























Interactive Weather Map
Tropical Storm Tracking
New forecast layout! Learn more

10-Day Weather Forecast

Advertisements
Track Severe Weather on mobile